sensor_id;sensor_type;location;lat;lon;timestamp;pressure;altitude;pressure_sealevel;temperature;humidity
4570;BME280;2297;51.442;6.996;2023-08-31T00:01:57;99557.91;;;15.33;54.48
4570;BME280;2297;51.442;6.996;2023-08-31T00:04:24;99550.13;;;15.45;54.43
4570;BME280;2297;51.442;6.996;2023-08-31T00:06:51;99550.41;;;15.41;54.37
4570;BME280;2297;51.442;6.996;2023-08-31T00:09:17;99534.97;;;15.47;54.22
4570;BME280;2297;51.442;6.996;2023-08-31T00:11:44;99542.69;;;15.52;54.01
4570;BME280;2297;51.442;6.996;2023-08-31T00:14:11;99539.50;;;15.45;54.19
4570;BME280;2297;51.442;6.996;2023-08-31T00:16:39;99535.53;;;15.37;54.25
4570;BME280;2297;51.442;6.996;2023-08-31T00:19:06;99539.69;;;15.42;54.16
4570;BME280;2297;51.442;6.996;2023-08-31T00:21:32;99542.25;;;15.44;54.45
4570;BME280;2297;51.442;6.996;2023-08-31T00:23:59;99550.31;;;15.42;54.35
4570;BME280;2297;51.442;6.996;2023-08-31T00:26:26;99550.13;;;15.45;54.32
4570;BME280;2297;51.442;6.996;2023-08-31T00:28:52;99550.28;;;15.26;54.74
4570;BME280;2297;51.442;6.996;2023-08-31T00:31:19;99546.88;;;15.05;55.47
4570;BME280;2297;51.442;6.996;2023-08-31T00:33:48;99539.09;;;15.20;55.11
4570;BME280;2297;51.442;6.996;2023-08-31T00:36:15;99550.28;;;15.26;54.81
4570;BME280;2297;51.442;6.996;2023-08-31T00:38:43;99552.66;;;15.31;54.85
4570;BME280;2297;51.442;6.996;2023-08-31T00:41:10;99557.53;;;15.23;54.76
4570;BME280;2297;51.442;6.996;2023-08-31T00:43:36;99552.66;;;15.31;54.85
4570;BME280;2297;51.442;6.996;2023-08-31T00:46:09;99556.91;;;15.18;55.11
4570;BME280;2297;51.442;6.996;2023-08-31T00:48:36;99560.19;;;15.23;55.00
4570;BME280;2297;51.442;6.996;2023-08-31T00:51:04;99558.94;;;14.95;56.03
4570;BME280;2297;51.442;6.996;2023-08-31T00:53:31;99561.91;;;14.89;56.14
4570;BME280;2297;51.442;6.996;2023-08-31T00:55:58;99558.72;;;15.00;56.07
4570;BME280;2297;51.442;6.996;2023-08-31T00:58:25;99557.69;;;15.02;55.77
4570;BME280;2297;51.442;6.996;2023-08-31T01:00:58;99567.53;;;15.00;56.00
4570;BME280;2297;51.442;6.996;2023-08-31T01:03:34;99567.06;;;14.92;56.03
4570;BME280;2297;51.442;6.996;2023-08-31T01:06:12;99561.28;;;15.01;55.97
4570;BME280;2297;51.442;6.996;2023-08-31T01:08:44;99556.59;;;15.06;55.69
4570;BME280;2297;51.442;6.996;2023-08-31T01:11:19;99557.34;;;15.08;55.27
4570;BME280;2297;51.442;6.996;2023-08-31T01:13:51;99552.91;;;14.91;55.53
4570;BME280;2297;51.442;6.996;2023-08-31T01:16:22;99561.41;;;14.63;56.08
4570;BME280;2297;51.442;6.996;2023-08-31T01:18:51;99562.25;;;14.46;56.77
4570;BME280;2297;51.442;6.996;2023-08-31T01:21:25;99566.09;;;14.75;55.81
4570;BME280;2297;51.442;6.996;2023-08-31T01:23:56;99567.63;;;14.81;55.69
4570;BME280;2297;51.442;6.996;2023-08-31T01:26:24;99556.28;;;14.77;55.81
4570;BME280;2297;51.442;6.996;2023-08-31T01:28:52;99549.69;;;14.67;56.06
4570;BME280;2297;51.442;6.996;2023-08-31T01:31:24;99553.31;;;14.84;55.76
4570;BME280;2297;51.442;6.996;2023-08-31T01:33:51;99544.47;;;14.29;56.79
4570;BME280;2297;51.442;6.996;2023-08-31T01:36:24;99548.28;;;14.60;56.18
4570;BME280;2297;51.442;6.996;2023-08-31T01:38:58;99560.97;;;14.72;55.97
4570;BME280;2297;51.442;6.996;2023-08-31T01:41:28;99560.69;;;14.59;56.23
4570;BME280;2297;51.442;6.996;2023-08-31T01:43:57;99559.41;;;14.68;56.07
4570;BME280;2297;51.442;6.996;2023-08-31T01:46:24;99554.53;;;14.59;56.17
4570;BME280;2297;51.442;6.996;2023-08-31T01:48:51;99555.81;;;14.69;56.10
4570;BME280;2297;51.442;6.996;2023-08-31T01:51:18;99562.50;;;14.59;56.26
4570;BME280;2297;51.442;6.996;2023-08-31T01:53:45;99560.25;;;14.69;55.97
4570;BME280;2297;51.442;6.996;2023-08-31T01:56:13;99566.28;;;14.72;56.16
4570;BME280;2297;51.442;6.996;2023-08-31T01:58:40;99566.44;;;14.69;56.07
4570;BME280;2297;51.442;6.996;2023-08-31T02:01:28;99578.94;;;14.67;56.30
4570;BME280;2297;51.442;6.996;2023-08-31T02:03:54;99574.31;;;14.71;56.17
4570;BME280;2297;51.442;6.996;2023-08-31T02:06:21;99583.94;;;14.73;56.02
4570;BME280;2297;51.442;6.996;2023-08-31T02:08:48;99575.06;;;14.55;56.38
4570;BME280;2297;51.442;6.996;2023-08-31T02:11:16;99579.13;;;14.45;56.63
4570;BME280;2297;51.442;6.996;2023-08-31T02:13:42;99582.16;;;14.37;56.89
4570;BME280;2297;51.442;6.996;2023-08-31T02:16:09;99579.16;;;14.26;57.36
4570;BME280;2297;51.442;6.996;2023-08-31T02:18:35;99580.50;;;14.35;57.24
4570;BME280;2297;51.442;6.996;2023-08-31T02:21:02;99580.66;;;14.32;57.13
4570;BME280;2297;51.442;6.996;2023-08-31T02:23:29;99572.38;;;14.38;57.22
4570;BME280;2297;51.442;6.996;2023-08-31T02:25:56;99578.09;;;14.47;56.93
4570;BME280;2297;51.442;6.996;2023-08-31T02:28:24;99576.47;;;14.45;56.85
4570;BME280;2297;51.442;6.996;2023-08-31T02:30:58;99581.28;;;14.37;57.22
4570;BME280;2297;51.442;6.996;2023-08-31T02:33:24;99574.69;;;14.26;57.27
4570;BME280;2297;51.442;6.996;2023-08-31T02:35:51;99576.34;;;14.29;57.19
4570;BME280;2297;51.442;6.996;2023-08-31T02:38:18;99580.72;;;14.30;57.21
4570;BME280;2297;51.442;6.996;2023-08-31T02:40:46;99581.88;;;14.24;57.21
4570;BME280;2297;51.442;6.996;2023-08-31T02:43:12;99574.03;;;14.40;56.60
4570;BME280;2297;51.442;6.996;2023-08-31T02:45:41;99575.31;;;14.51;56.88
4570;BME280;2297;51.442;6.996;2023-08-31T02:48:08;99576.66;;;14.23;56.91
4570;BME280;2297;51.442;6.996;2023-08-31T02:50:35;99571.88;;;14.10;57.65
4570;BME280;2297;51.442;6.996;2023-08-31T02:53:02;99577.56;;;14.03;58.06
4570;BME280;2297;51.442;6.996;2023-08-31T02:55:47;99575.41;;;14.11;57.37
4570;BME280;2297;51.442;6.996;2023-08-31T02:58:15;99585.69;;;14.19;57.14
4570;BME280;2297;51.442;6.996;2023-08-31T03:00:43;99589.31;;;14.16;57.44
4570;BME280;2297;51.442;6.996;2023-08-31T03:03:13;99584.75;;;14.20;57.24
4570;BME280;2297;51.442;6.996;2023-08-31T03:05:39;99584.00;;;13.97;57.92
4570;BME280;2297;51.442;6.996;2023-08-31T03:08:06;99575.97;;;14.18;57.59
4570;BME280;2297;51.442;6.996;2023-08-31T03:10:33;99572.69;;;13.93;58.10
4570;BME280;2297;51.442;6.996;2023-08-31T03:12:59;99579.97;;;13.69;58.21
4570;BME280;2297;51.442;6.996;2023-08-31T03:15:29;99584.88;;;14.17;57.25
4570;BME280;2297;51.442;6.996;2023-08-31T03:17:57;99583.03;;;14.19;57.43
4570;BME280;2297;51.442;6.996;2023-08-31T03:20:23;99584.63;;;14.23;57.03
4570;BME280;2297;51.442;6.996;2023-08-31T03:22:50;99590.47;;;14.10;57.70
4570;BME280;2297;51.442;6.996;2023-08-31T03:25:17;99591.63;;;14.24;57.18
4570;BME280;2297;51.442;6.996;2023-08-31T03:27:43;99599.50;;;14.06;57.55
4570;BME280;2297;51.442;6.996;2023-08-31T03:30:11;99586.22;;;14.06;57.52
4570;BME280;2297;51.442;6.996;2023-08-31T03:32:37;99591.91;;;14.18;57.43
4570;BME280;2297;51.442;6.996;2023-08-31T03:35:06;99581.91;;;14.04;57.62
4570;BME280;2297;51.442;6.996;2023-08-31T03:37:33;99591.63;;;13.86;58.31
4570;BME280;2297;51.442;6.996;2023-08-31T03:40:00;99587.03;;;14.08;57.51
4570;BME280;2297;51.442;6.996;2023-08-31T03:42:27;99588.59;;;14.12;57.50
4570;BME280;2297;51.442;6.996;2023-08-31T03:44:53;99592.63;;;14.02;57.94
4570;BME280;2297;51.442;6.996;2023-08-31T03:50:43;99588.31;;;14.00;58.03
4570;BME280;2297;51.442;6.996;2023-08-31T03:53:12;99592.47;;;14.05;57.75
4570;BME280;2297;51.442;6.996;2023-08-31T03:55:41;99587.88;;;14.09;57.70
4570;BME280;2297;51.442;6.996;2023-08-31T03:58:08;99590.75;;;14.04;57.86
4570;BME280;2297;51.442;6.996;2023-08-31T04:00:36;99589.19;;;14.00;58.13
4570;BME280;2297;51.442;6.996;2023-08-31T04:03:03;99590.13;;;13.99;57.81
4570;BME280;2297;51.442;6.996;2023-08-31T04:05:32;99587.38;;;14.01;57.89
4570;BME280;2297;51.442;6.996;2023-08-31T04:08:00;99593.47;;;13.84;58.70
4570;BME280;2297;51.442;6.996;2023-08-31T04:10:27;99597.84;;;13.85;58.61
4570;BME280;2297;51.442;6.996;2023-08-31T04:12:55;99594.47;;;13.81;58.34
4570;BME280;2297;51.442;6.996;2023-08-31T04:15:21;99602.00;;;13.71;58.66
4570;BME280;2297;51.442;6.996;2023-08-31T04:17:48;99600.31;;;13.50;59.44
4570;BME280;2297;51.442;6.996;2023-08-31T04:20:15;99597.75;;;13.67;59.08
4570;BME280;2297;51.442;6.996;2023-08-31T04:22:42;99600.31;;;13.50;59.35
4570;BME280;2297;51.442;6.996;2023-08-31T04:25:10;99599.16;;;13.55;59.22
4570;BME280;2297;51.442;6.996;2023-08-31T04:27:37;99590.56;;;13.50;59.49
4570;BME280;2297;51.442;6.996;2023-08-31T04:30:05;99601.91;;;13.54;59.33
4570;BME280;2297;51.442;6.996;2023-08-31T04:32:36;99599.75;;;13.62;59.04
4570;BME280;2297;51.442;6.996;2023-08-31T04:35:03;99606.91;;;13.60;59.25
4570;BME280;2297;51.442;6.996;2023-08-31T04:37:31;99601.19;;;13.69;59.41
4570;BME280;2297;51.442;6.996;2023-08-31T04:39:57;99608.13;;;13.53;59.47
4570;BME280;2297;51.442;6.996;2023-08-31T04:42:25;99602.31;;;13.44;60.41
4570;BME280;2297;51.442;6.996;2023-08-31T04:44:55;99606.28;;;13.34;60.45
4570;BME280;2297;51.442;6.996;2023-08-31T04:47:22;99615.69;;;13.41;60.52
4570;BME280;2297;51.442;6.996;2023-08-31T04:49:48;99612.84;;;13.25;61.24
4570;BME280;2297;51.442;6.996;2023-08-31T04:52:15;99617.75;;;13.35;60.92
4570;BME280;2297;51.442;6.996;2023-08-31T04:54:42;99617.75;;;13.35;60.88
4570;BME280;2297;51.442;6.996;2023-08-31T04:57:08;99626.03;;;13.27;61.13
4570;BME280;2297;51.442;6.996;2023-08-31T04:59:37;99623.91;;;13.35;61.29
4570;BME280;2297;51.442;6.996;2023-08-31T05:02:06;99632.38;;;13.23;61.62
4570;BME280;2297;51.442;6.996;2023-08-31T05:04:33;99641.28;;;13.42;60.83
4570;BME280;2297;51.442;6.996;2023-08-31T05:06:59;99641.09;;;13.47;60.86
4570;BME280;2297;51.442;6.996;2023-08-31T05:09:26;99647.78;;;13.56;60.89
4570;BME280;2297;51.442;6.996;2023-08-31T05:11:57;99641.13;;;13.45;61.26
4570;BME280;2297;51.442;6.996;2023-08-31T05:14:24;99646.78;;;13.58;60.81
4570;BME280;2297;51.442;6.996;2023-08-31T05:16:52;99650.81;;;13.67;60.45
4570;BME280;2297;51.442;6.996;2023-08-31T05:19:18;99649.75;;;13.71;60.42
4570;BME280;2297;51.442;6.996;2023-08-31T05:21:45;99654.19;;;13.71;60.43
4570;BME280;2297;51.442;6.996;2023-08-31T05:24:15;99654.16;;;13.52;60.99
4570;BME280;2297;51.442;6.996;2023-08-31T05:26:41;99654.91;;;13.74;60.24
4570;BME280;2297;51.442;6.996;2023-08-31T05:29:08;99668.47;;;13.68;60.27
4570;BME280;2297;51.442;6.996;2023-08-31T05:31:35;99657.97;;;13.65;60.56
4570;BME280;2297;51.442;6.996;2023-08-31T05:34:03;99663.28;;;13.65;60.41
4570;BME280;2297;51.442;6.996;2023-08-31T05:36:30;99663.69;;;13.56;60.69
4570;BME280;2297;51.442;6.996;2023-08-31T05:38:57;99666.41;;;13.75;59.99
4570;BME280;2297;51.442;6.996;2023-08-31T05:41:23;99666.75;;;13.67;60.33
4570;BME280;2297;51.442;6.996;2023-08-31T05:43:50;99675.00;;;13.80;59.99
4570;BME280;2297;51.442;6.996;2023-08-31T05:46:17;99676.75;;;13.18;61.64
4570;BME280;2297;51.442;6.996;2023-08-31T05:48:44;99683.09;;;13.77;60.15
4570;BME280;2297;51.442;6.996;2023-08-31T05:51:12;99681.44;;;13.33;61.22
4570;BME280;2297;51.442;6.996;2023-08-31T05:53:39;99675.50;;;13.49;61.37
4570;BME280;2297;51.442;6.996;2023-08-31T05:56:05;99679.69;;;13.75;60.76
4570;BME280;2297;51.442;6.996;2023-08-31T05:58:32;99676.16;;;13.74;60.74
4570;BME280;2297;51.442;6.996;2023-08-31T06:01:00;99689.16;;;13.39;61.80
4570;BME280;2297;51.442;6.996;2023-08-31T06:03:30;99681.59;;;13.51;61.36
4570;BME280;2297;51.442;6.996;2023-08-31T06:05:58;99681.19;;;13.60;61.25
4570;BME280;2297;51.442;6.996;2023-08-31T06:08:26;99685.06;;;13.53;61.21
4570;BME280;2297;51.442;6.996;2023-08-31T06:10:53;99687.91;;;13.69;60.82
4570;BME280;2297;51.442;6.996;2023-08-31T06:13:19;99687.41;;;13.79;60.76
4570;BME280;2297;51.442;6.996;2023-08-31T06:15:46;99699.38;;;13.90;60.29
4570;BME280;2297;51.442;6.996;2023-08-31T06:18:13;99700.78;;;13.97;60.12
4570;BME280;2297;51.442;6.996;2023-08-31T06:20:39;99707.56;;;14.04;59.74
4570;BME280;2297;51.442;6.996;2023-08-31T06:23:06;99703.69;;;13.92;59.92
4570;BME280;2297;51.442;6.996;2023-08-31T06:25:34;99708.44;;;14.05;59.85
4570;BME280;2297;51.442;6.996;2023-08-31T06:28:01;99708.34;;;14.27;59.31
4570;BME280;2297;51.442;6.996;2023-08-31T06:30:28;99711.41;;;13.97;59.80
4570;BME280;2297;51.442;6.996;2023-08-31T06:32:54;99713.31;;;14.14;59.66
4570;BME280;2297;51.442;6.996;2023-08-31T06:35:22;99714.50;;;14.27;59.19
4570;BME280;2297;51.442;6.996;2023-08-31T06:37:49;99720.91;;;14.23;59.44
4570;BME280;2297;51.442;6.996;2023-08-31T06:40:16;99715.50;;;14.25;59.54
4570;BME280;2297;51.442;6.996;2023-08-31T06:42:43;99712.75;;;13.87;60.64
4570;BME280;2297;51.442;6.996;2023-08-31T06:45:10;99710.88;;;14.09;60.35
4570;BME280;2297;51.442;6.996;2023-08-31T06:47:37;99710.09;;;14.07;60.14
4570;BME280;2297;51.442;6.996;2023-08-31T06:50:04;99716.09;;;14.32;59.70
4570;BME280;2297;51.442;6.996;2023-08-31T06:52:31;99708.00;;;14.35;59.26
4570;BME280;2297;51.442;6.996;2023-08-31T06:54:58;99717.19;;;14.07;60.75
4570;BME280;2297;51.442;6.996;2023-08-31T06:57:26;99719.25;;;14.00;60.76
4570;BME280;2297;51.442;6.996;2023-08-31T06:59:54;99709.50;;;14.40;59.42
4570;BME280;2297;51.442;6.996;2023-08-31T07:02:21;99718.16;;;14.25;59.99
4570;BME280;2297;51.442;6.996;2023-08-31T07:04:49;99715.97;;;14.54;59.24
4570;BME280;2297;51.442;6.996;2023-08-31T07:07:17;99721.44;;;14.51;58.90
4570;BME280;2297;51.442;6.996;2023-08-31T07:09:46;99718.09;;;14.26;59.60
4570;BME280;2297;51.442;6.996;2023-08-31T07:12:13;99724.75;;;14.56;59.19
4570;BME280;2297;51.442;6.996;2023-08-31T07:14:40;99720.06;;;14.42;59.61
4570;BME280;2297;51.442;6.996;2023-08-31T07:17:42;99723.66;;;14.60;58.78
4570;BME280;2297;51.442;6.996;2023-08-31T07:20:09;99726.16;;;14.63;58.79
4570;BME280;2297;51.442;6.996;2023-08-31T07:22:37;99732.78;;;14.73;58.26
4570;BME280;2297;51.442;6.996;2023-08-31T07:25:05;99729.47;;;14.68;58.97
4570;BME280;2297;51.442;6.996;2023-08-31T07:27:32;99729.75;;;14.81;58.31
4570;BME280;2297;51.442;6.996;2023-08-31T07:29:59;99733.50;;;14.77;58.22
4570;BME280;2297;51.442;6.996;2023-08-31T07:32:25;99725.97;;;15.04;57.86
4570;BME280;2297;51.442;6.996;2023-08-31T07:35:10;99732.22;;;15.03;57.82
4570;BME280;2297;51.442;6.996;2023-08-31T07:37:37;99734.34;;;15.16;57.14
4570;BME280;2297;51.442;6.996;2023-08-31T07:40:04;99736.31;;;15.10;57.51
4570;BME280;2297;51.442;6.996;2023-08-31T07:42:33;99736.09;;;14.78;58.77
4570;BME280;2297;51.442;6.996;2023-08-31T07:45:00;99730.59;;;14.82;57.88
4570;BME280;2297;51.442;6.996;2023-08-31T07:47:27;99733.25;;;15.20;57.25
4570;BME280;2297;51.442;6.996;2023-08-31T07:49:53;99739.56;;;14.98;57.59
4570;BME280;2297;51.442;6.996;2023-08-31T07:52:21;99737.47;;;15.24;56.95
4570;BME280;2297;51.442;6.996;2023-08-31T07:54:48;99745.09;;;15.49;56.44
4570;BME280;2297;51.442;6.996;2023-08-31T07:57:15;99748.13;;;15.05;57.63
4570;BME280;2297;51.442;6.996;2023-08-31T07:59:41;99750.94;;;15.38;57.41
4570;BME280;2297;51.442;6.996;2023-08-31T08:05:21;99759.41;;;15.46;56.19
4570;BME280;2297;51.442;6.996;2023-08-31T08:07:49;99763.97;;;15.62;56.02
4570;BME280;2297;51.442;6.996;2023-08-31T08:10:15;99762.31;;;15.59;56.52
4570;BME280;2297;51.442;6.996;2023-08-31T08:12:42;99759.66;;;15.59;56.38
4570;BME280;2297;51.442;6.996;2023-08-31T08:15:10;99755.91;;;15.63;56.14
4570;BME280;2297;51.442;6.996;2023-08-31T08:17:37;99759.41;;;15.46;57.09
4570;BME280;2297;51.442;6.996;2023-08-31T08:20:05;99757.47;;;15.68;56.05
4570;BME280;2297;51.442;6.996;2023-08-31T08:22:32;99759.69;;;15.40;56.37
4570;BME280;2297;51.442;6.996;2023-08-31T08:25:00;99764.72;;;15.82;56.06
4570;BME280;2297;51.442;6.996;2023-08-31T08:27:28;99770.72;;;16.04;55.39
4570;BME280;2297;51.442;6.996;2023-08-31T08:29:54;99768.94;;;16.21;55.10
4570;BME280;2297;51.442;6.996;2023-08-31T08:32:21;99765.19;;;16.25;55.09
4570;BME280;2297;51.442;6.996;2023-08-31T08:34:47;99769.56;;;16.26;55.24
4570;BME280;2297;51.442;6.996;2023-08-31T08:37:14;99770.06;;;16.17;55.58
4570;BME280;2297;51.442;6.996;2023-08-31T08:39:40;99778.66;;;15.87;56.33
4570;BME280;2297;51.442;6.996;2023-08-31T08:42:10;99782.59;;;16.15;56.06
4570;BME280;2297;51.442;6.996;2023-08-31T08:44:37;99780.25;;;16.42;55.13
4570;BME280;2297;51.442;6.996;2023-08-31T08:47:03;99779.91;;;16.32;55.27
4570;BME280;2297;51.442;6.996;2023-08-31T08:49:31;99784.25;;;16.00;55.52
4570;BME280;2297;51.442;6.996;2023-08-31T08:51:58;99778.09;;;15.97;56.49
4570;BME280;2297;51.442;6.996;2023-08-31T08:54:27;99780.41;;;16.05;55.73
4570;BME280;2297;51.442;6.996;2023-08-31T08:56:53;99783.78;;;16.42;55.45
4570;BME280;2297;51.442;6.996;2023-08-31T08:59:21;99775.59;;;16.29;54.70
4570;BME280;2297;51.442;6.996;2023-08-31T09:01:48;99771.69;;;16.53;54.28
4570;BME280;2297;51.442;6.996;2023-08-31T09:04:15;99775.50;;;16.80;53.32
4570;BME280;2297;51.442;6.996;2023-08-31T09:06:42;99778.97;;;17.15;52.69
4570;BME280;2297;51.442;6.996;2023-08-31T09:09:09;99776.91;;;17.20;52.82
4570;BME280;2297;51.442;6.996;2023-08-31T09:11:36;99784.56;;;17.26;52.34
4570;BME280;2297;51.442;6.996;2023-08-31T09:14:14;99779.41;;;16.91;52.31
4570;BME280;2297;51.442;6.996;2023-08-31T09:16:44;99778.00;;;17.16;52.44
4570;BME280;2297;51.442;6.996;2023-08-31T09:19:19;99783.78;;;17.24;50.69
4570;BME280;2297;51.442;6.996;2023-08-31T09:21:47;99775.66;;;17.41;50.13
4570;BME280;2297;51.442;6.996;2023-08-31T09:24:14;99788.25;;;17.07;50.05
4570;BME280;2297;51.442;6.996;2023-08-31T09:26:43;99780.69;;;17.16;50.41
4570;BME280;2297;51.442;6.996;2023-08-31T09:29:10;99784.84;;;17.21;51.19
4570;BME280;2297;51.442;6.996;2023-08-31T09:31:37;99773.19;;;17.85;49.30
4570;BME280;2297;51.442;6.996;2023-08-31T09:34:05;99785.56;;;17.86;48.89
4570;BME280;2297;51.442;6.996;2023-08-31T09:36:32;99782.13;;;17.84;48.39
4570;BME280;2297;51.442;6.996;2023-08-31T09:38:58;99781.97;;;18.46;47.32
4570;BME280;2297;51.442;6.996;2023-08-31T09:41:25;99784.13;;;18.39;47.27
4570;BME280;2297;51.442;6.996;2023-08-31T09:43:52;99784.69;;;18.30;47.34
4570;BME280;2297;51.442;6.996;2023-08-31T09:46:19;99792.53;;;18.76;46.40
4570;BME280;2297;51.442;6.996;2023-08-31T09:48:47;99787.91;;;18.93;45.34
4570;BME280;2297;51.442;6.996;2023-08-31T09:51:15;99798.78;;;18.03;46.08
4570;BME280;2297;51.442;6.996;2023-08-31T09:53:47;99790.66;;;18.50;45.86
4570;BME280;2297;51.442;6.996;2023-08-31T09:59:20;99797.28;;;18.28;45.87
4570;BME280;2297;51.442;6.996;2023-08-31T10:01:47;99793.53;;;18.16;45.13
4570;BME280;2297;51.442;6.996;2023-08-31T10:04:14;99786.31;;;18.18;45.66
4570;BME280;2297;51.442;6.996;2023-08-31T10:06:43;99795.09;;;17.59;46.32
4570;BME280;2297;51.442;6.996;2023-08-31T10:09:09;99799.50;;;17.91;46.40
4570;BME280;2297;51.442;6.996;2023-08-31T10:11:38;99797.69;;;18.51;44.93
4570;BME280;2297;51.442;6.996;2023-08-31T10:14:05;99800.72;;;18.30;44.39
4570;BME280;2297;51.442;6.996;2023-08-31T10:16:34;99810.31;;;18.49;44.10
4570;BME280;2297;51.442;6.996;2023-08-31T10:19:02;99804.75;;;18.52;44.25
4570;BME280;2297;51.442;6.996;2023-08-31T10:21:32;99804.75;;;18.52;43.99
4570;BME280;2297;51.442;6.996;2023-08-31T10:24:00;99803.81;;;18.67;43.85
4570;BME280;2297;51.442;6.996;2023-08-31T10:26:27;99792.91;;;18.85;43.65
4570;BME280;2297;51.442;6.996;2023-08-31T10:28:55;99803.84;;;18.94;43.78
4570;BME280;2297;51.442;6.996;2023-08-31T10:31:22;99799.84;;;19.02;43.42
4570;BME280;2297;51.442;6.996;2023-08-31T10:33:55;99805.16;;;19.16;42.83
4570;BME280;2297;51.442;6.996;2023-08-31T10:36:34;99803.59;;;18.85;41.95
4570;BME280;2297;51.442;6.996;2023-08-31T10:39:05;99805.53;;;18.68;42.07
4570;BME280;2297;51.442;6.996;2023-08-31T10:41:33;99800.38;;;18.65;42.16
4570;BME280;2297;51.442;6.996;2023-08-31T10:44:00;99800.72;;;18.73;42.44
4570;BME280;2297;51.442;6.996;2023-08-31T10:46:29;99798.84;;;18.75;41.69
4570;BME280;2297;51.442;6.996;2023-08-31T10:48:57;99793.13;;;19.51;40.82
4570;BME280;2297;51.442;6.996;2023-08-31T10:51:25;99796.25;;;19.30;40.65
4570;BME280;2297;51.442;6.996;2023-08-31T10:54:05;99787.41;;;19.01;41.56
4570;BME280;2297;51.442;6.996;2023-08-31T10:56:32;99791.47;;;19.35;40.83
4570;BME280;2297;51.442;6.996;2023-08-31T10:59:00;99785.56;;;19.16;42.84
4570;BME280;2297;51.442;6.996;2023-08-31T11:01:53;99796.16;;;18.75;43.27
4570;BME280;2297;51.442;6.996;2023-08-31T11:04:21;99787.91;;;18.93;43.18
4570;BME280;2297;51.442;6.996;2023-08-31T11:06:48;99782.56;;;18.93;42.47
4570;BME280;2297;51.442;6.996;2023-08-31T11:09:20;99787.59;;;19.79;41.25
4570;BME280;2297;51.442;6.996;2023-08-31T11:11:47;99787.91;;;20.02;40.31
4570;BME280;2297;51.442;6.996;2023-08-31T11:14:14;99780.13;;;19.85;39.95
4570;BME280;2297;51.442;6.996;2023-08-31T11:16:44;99776.56;;;20.11;39.89
4570;BME280;2297;51.442;6.996;2023-08-31T11:19:11;99766.19;;;19.39;39.90
4570;BME280;2297;51.442;6.996;2023-08-31T11:21:38;99773.63;;;19.49;38.51
4570;BME280;2297;51.442;6.996;2023-08-31T11:24:05;99782.88;;;18.74;41.39
4570;BME280;2297;51.442;6.996;2023-08-31T11:26:35;99782.41;;;19.51;41.21
4570;BME280;2297;51.442;6.996;2023-08-31T11:29:06;99773.97;;;19.97;40.60
4570;BME280;2297;51.442;6.996;2023-08-31T11:31:32;99766.56;;;20.01;39.58
4570;BME280;2297;51.442;6.996;2023-08-31T11:33:59;99780.13;;;19.85;40.10
4570;BME280;2297;51.442;6.996;2023-08-31T11:36:25;99780.38;;;19.54;40.55
4570;BME280;2297;51.442;6.996;2023-08-31T11:38:52;99773.31;;;19.26;41.20
4570;BME280;2297;51.442;6.996;2023-08-31T11:41:19;99784.28;;;19.36;41.86
4570;BME280;2297;51.442;6.996;2023-08-31T11:43:47;99782.25;;;19.39;42.89
4570;BME280;2297;51.442;6.996;2023-08-31T11:46:15;99776.78;;;19.28;42.43
4570;BME280;2297;51.442;6.996;2023-08-31T11:48:42;99776.91;;;19.39;42.28
4570;BME280;2297;51.442;6.996;2023-08-31T11:51:10;99766.59;;;19.60;42.04
4570;BME280;2297;51.442;6.996;2023-08-31T11:53:38;99765.63;;;20.15;40.67
4570;BME280;2297;51.442;6.996;2023-08-31T11:56:05;99760.56;;;20.23;39.53
4570;BME280;2297;51.442;6.996;2023-08-31T11:58:31;99760.34;;;20.26;39.00
4570;BME280;2297;51.442;6.996;2023-08-31T12:01:00;99763.78;;;20.02;39.28
4570;BME280;2297;51.442;6.996;2023-08-31T12:03:42;99768.06;;;20.18;38.87
4570;BME280;2297;51.442;6.996;2023-08-31T12:06:11;99768.63;;;19.97;40.02
4570;BME280;2297;51.442;6.996;2023-08-31T12:08:41;99769.91;;;20.17;40.11
4570;BME280;2297;51.442;6.996;2023-08-31T12:11:08;99767.84;;;19.95;39.58
4570;BME280;2297;51.442;6.996;2023-08-31T12:13:34;99775.88;;;19.95;39.27
4570;BME280;2297;51.442;6.996;2023-08-31T12:16:03;99772.56;;;19.51;39.49
4570;BME280;2297;51.442;6.996;2023-08-31T12:18:32;99771.66;;;19.91;39.13
4570;BME280;2297;51.442;6.996;2023-08-31T12:20:59;99772.06;;;20.25;38.51
4570;BME280;2297;51.442;6.996;2023-08-31T12:23:26;99771.81;;;20.28;38.74
4570;BME280;2297;51.442;6.996;2023-08-31T12:25:53;99776.22;;;20.16;38.39
4570;BME280;2297;51.442;6.996;2023-08-31T12:28:22;99783.41;;;20.16;38.64
4570;BME280;2297;51.442;6.996;2023-08-31T12:30:50;99788.22;;;20.10;38.70
4570;BME280;2297;51.442;6.996;2023-08-31T12:33:19;99783.19;;;20.19;37.87
4570;BME280;2297;51.442;6.996;2023-08-31T12:35:46;99778.56;;;20.34;38.10
4570;BME280;2297;51.442;6.996;2023-08-31T12:38:13;99778.66;;;20.71;37.56
4570;BME280;2297;51.442;6.996;2023-08-31T12:40:40;99769.34;;;20.76;36.99
4570;BME280;2297;51.442;6.996;2023-08-31T12:43:06;99771.81;;;20.67;37.10
4570;BME280;2297;51.442;6.996;2023-08-31T12:45:34;99769.91;;;20.30;37.73
4570;BME280;2297;51.442;6.996;2023-08-31T12:48:02;99777.19;;;20.41;37.92
4570;BME280;2297;51.442;6.996;2023-08-31T12:50:32;99776.22;;;20.03;38.84
4570;BME280;2297;51.442;6.996;2023-08-31T12:52:59;99769.25;;;20.65;38.83
4570;BME280;2297;51.442;6.996;2023-08-31T12:55:25;99766.69;;;21.01;38.40
4570;BME280;2297;51.442;6.996;2023-08-31T12:57:52;99770.44;;;20.98;38.39
4570;BME280;2297;51.442;6.996;2023-08-31T13:00:19;99769.50;;;21.48;37.94
4570;BME280;2297;51.442;6.996;2023-08-31T13:02:46;99776.25;;;21.16;37.89
4570;BME280;2297;51.442;6.996;2023-08-31T13:05:12;99771.66;;;20.94;38.11
4570;BME280;2297;51.442;6.996;2023-08-31T13:07:40;99781.84;;;21.50;37.78
4570;BME280;2297;51.442;6.996;2023-08-31T13:10:08;99767.00;;;21.33;38.11
4570;BME280;2297;51.442;6.996;2023-08-31T13:12:34;99769.25;;;21.26;38.18
4570;BME280;2297;51.442;6.996;2023-08-31T13:15:02;99767.50;;;21.38;38.12
4570;BME280;2297;51.442;6.996;2023-08-31T13:17:29;99763.16;;;21.84;37.39
4570;BME280;2297;51.442;6.996;2023-08-31T13:19:57;99771.81;;;21.76;36.88
4570;BME280;2297;51.442;6.996;2023-08-31T13:22:24;99762.72;;;21.55;36.68
4570;BME280;2297;51.442;6.996;2023-08-31T13:24:52;99764.50;;;21.30;36.58
4570;BME280;2297;51.442;6.996;2023-08-31T13:27:19;99769.47;;;21.36;34.88
4570;BME280;2297;51.442;6.996;2023-08-31T13:29:48;99768.84;;;21.68;33.48
4570;BME280;2297;51.442;6.996;2023-08-31T13:32:15;99769.78;;;21.56;33.25
4570;BME280;2297;51.442;6.996;2023-08-31T13:34:41;99766.44;;;21.76;32.96
4570;BME280;2297;51.442;6.996;2023-08-31T13:37:08;99766.19;;;21.80;32.98